createdAt,value
2022-08-01T00:03:03.784Z,21.02
2022-08-01T00:08:05.596Z,20.95
2022-08-01T00:13:07.034Z,20.82
2022-08-01T00:18:08.508Z,20.73
2022-08-01T00:23:09.948Z,20.57
2022-08-01T00:28:11.400Z,20.51
2022-08-01T00:33:13.122Z,20.38
2022-08-01T00:38:14.700Z,20.28
2022-08-01T00:43:16.452Z,20.36
2022-08-01T00:48:18.049Z,20.31
2022-08-01T00:53:19.719Z,20.24
2022-08-01T00:58:24.130Z,20.26
2022-08-01T01:09:06.953Z,20.43
2022-08-01T01:14:20.071Z,20.45
2022-08-01T01:19:25.433Z,20.46
2022-08-01T01:24:50.241Z,20.44
2022-08-01T01:30:00.253Z,20.39
2022-08-01T01:35:36.602Z,20.46
2022-08-01T01:40:39.252Z,20.56
2022-08-01T01:45:42.365Z,20.57
2022-08-01T01:50:47.105Z,20.53
2022-08-01T01:55:54.305Z,20.35
2022-08-01T02:00:59.579Z,20.18
2022-08-01T02:06:05.152Z,20.30
2022-08-01T02:11:07.385Z,20.48
2022-08-01T02:16:09.961Z,20.75
2022-08-01T02:21:17.327Z,20.67
2022-08-01T02:26:19.409Z,20.38
2022-08-01T02:31:23.093Z,20.23
2022-08-01T02:36:30.016Z,20.18
2022-08-01T02:41:37.025Z,20.25
2022-08-01T02:46:52.770Z,20.18
2022-08-01T02:51:56.839Z,20.38
2022-08-01T02:56:59.498Z,20.53
2022-08-01T03:02:03.502Z,20.49
2022-08-01T03:07:07.186Z,20.67
2022-08-01T03:12:14.087Z,20.54
2022-08-01T03:17:17.943Z,20.49
2022-08-01T03:22:22.222Z,20.51
2022-08-01T03:27:25.259Z,20.42
2022-08-01T03:32:29.390Z,20.45
2022-08-01T03:37:37.774Z,20.54
2022-08-01T03:42:49.342Z,20.67
2022-08-01T03:47:56.648Z,20.74
2022-08-01T03:52:59.932Z,20.80
2022-08-01T03:58:04.205Z,20.90
2022-08-01T04:03:13.921Z,20.90
2022-08-01T04:08:15.373Z,20.93
2022-08-01T04:13:16.914Z,20.87
2022-08-01T04:18:18.733Z,20.70
2022-08-01T04:23:25.633Z,20.70
2022-08-01T04:28:27.852Z,20.76
2022-08-01T04:33:32.402Z,20.83
2022-08-01T04:38:35.899Z,20.83
2022-08-01T04:43:40.595Z,20.91
2022-08-01T04:48:42.487Z,20.94
2022-08-01T04:53:45.411Z,21.13
2022-08-01T04:58:47.408Z,21.22
2022-08-01T05:03:48.940Z,21.27
2022-08-01T05:08:50.451Z,21.38
2022-08-01T05:13:51.975Z,21.43
2022-08-01T05:18:53.443Z,21.53
2022-08-01T05:23:54.974Z,21.41
2022-08-01T05:28:56.472Z,21.34
2022-08-01T05:33:57.936Z,21.33
2022-08-01T05:38:59.738Z,21.43
2022-08-01T05:44:01.208Z,21.48
2022-08-01T05:49:04.499Z,21.59
2022-08-01T05:54:06.035Z,21.49
2022-08-01T05:59:07.735Z,21.57
2022-08-01T06:04:09.215Z,21.53
2022-08-01T06:09:10.680Z,21.59
2022-08-01T06:14:12.282Z,21.75
2022-08-01T06:19:13.815Z,21.68
2022-08-01T06:24:15.269Z,21.91
2022-08-01T06:29:16.880Z,22.11
2022-08-01T06:34:18.425Z,22.04
2022-08-01T06:39:19.971Z,21.69
2022-08-01T06:44:21.449Z,22.20
2022-08-01T06:49:22.936Z,23.14
2022-08-01T06:54:24.663Z,24.29
2022-08-01T06:59:26.161Z,28.11
2022-08-01T07:04:27.717Z,27.23
2022-08-01T07:09:29.533Z,26.49
2022-08-01T07:14:31.163Z,27.69
2022-08-01T07:19:32.694Z,27.55
2022-08-01T07:24:34.198Z,32.75
2022-08-01T07:29:37.302Z,26.89
2022-08-01T07:34:38.850Z,27.91
2022-08-01T07:39:40.371Z,27.29
2022-08-01T07:44:42.050Z,24.58
2022-08-01T07:49:43.676Z,23.65
2022-08-01T07:54:49.201Z,23.67
2022-08-01T07:59:53.447Z,28.59
2022-08-01T08:04:55.009Z,29.24
2022-08-01T08:09:56.969Z,25.92
2022-08-01T08:14:58.930Z,26.77
2022-08-01T08:20:00.410Z,28.98
2022-08-01T08:25:01.908Z,27.27
2022-08-01T08:30:05.573Z,26.00
2022-08-01T08:35:08.355Z,25.66
2022-08-01T08:40:13.598Z,25.79
2022-08-01T08:45:15.167Z,26.55
2022-08-01T08:50:17.352Z,26.84
2022-08-01T08:55:19.947Z,27.67
2022-08-01T09:00:21.670Z,28.71
2022-08-01T09:05:24.741Z,27.18
2022-08-01T09:10:39.955Z,27.62
2022-08-01T09:15:44.152Z,27.84
2022-08-01T09:20:45.795Z,27.45
2022-08-01T09:25:56.721Z,28.25
2022-08-01T09:31:07.025Z,26.97
2022-08-01T09:36:13.122Z,27.22
2022-08-01T09:41:15.032Z,27.17
2022-08-01T09:46:17.080Z,26.33
2022-08-01T09:51:58.867Z,25.97
2022-08-01T09:57:12.456Z,26.32
2022-08-01T10:02:26.759Z,26.70
2022-08-01T10:07:43.091Z,26.71
2022-08-01T10:12:45.999Z,27.53
2022-08-01T10:17:54.529Z,27.97
2022-08-01T10:23:07.979Z,27.56
2022-08-01T10:28:15.486Z,27.04
2022-08-01T10:33:52.042Z,26.87
2022-08-01T10:38:44.969Z,27.08
2022-08-01T10:43:46.942Z,26.63
2022-08-01T10:48:54.678Z,27.11
2022-08-01T10:53:56.958Z,27.50
2022-08-01T10:59:06.433Z,27.98
2022-08-01T11:04:18.455Z,27.83
2022-08-01T11:09:36.561Z,27.27
2022-08-01T11:15:00.520Z,27.14
2022-08-01T11:20:15.049Z,26.91
2022-08-01T11:25:16.823Z,26.82
2022-08-01T11:30:20.067Z,26.72
2022-08-01T11:35:25.833Z,27.40
2022-08-01T11:40:29.190Z,27.70
2022-08-01T11:45:51.478Z,27.96
2022-08-01T11:50:57.361Z,28.13
2022-08-01T11:55:59.208Z,27.63
2022-08-01T12:01:00.692Z,27.52
2022-08-01T12:06:02.436Z,27.78
2022-08-01T12:11:06.955Z,27.88
2022-08-01T12:16:09.837Z,27.94
2022-08-01T12:21:11.368Z,27.60
2022-08-01T12:26:25.789Z,27.91
2022-08-01T12:31:35.440Z,28.02
2022-08-01T12:36:37.078Z,27.57
2022-08-01T12:41:38.793Z,27.37
2022-08-01T12:46:44.279Z,27.32
2022-08-01T12:51:46.298Z,27.14
2022-08-01T12:56:59.317Z,27.60
2022-08-01T13:02:09.538Z,27.38
2022-08-01T13:07:11.193Z,27.52
2022-08-01T13:12:12.994Z,27.83
2022-08-01T13:17:30.941Z,27.73
2022-08-01T13:22:36.837Z,27.83
2022-08-01T13:27:39.523Z,27.89
2022-08-01T13:33:01.426Z,27.91
2022-08-01T13:38:03.061Z,27.28
2022-08-01T13:43:04.489Z,27.92
2022-08-01T13:48:12.693Z,27.64
2022-08-01T13:53:19.981Z,27.77
2022-08-01T13:58:21.447Z,27.20
2022-08-01T14:03:33.505Z,27.78
2022-08-01T14:08:35.707Z,27.38
2022-08-01T14:13:37.863Z,27.62
2022-08-01T14:18:46.790Z,27.35
2022-08-01T14:23:48.495Z,27.59
2022-08-01T14:28:50.312Z,27.33
2022-08-01T14:33:51.910Z,27.34
2022-08-01T14:38:53.374Z,27.15
2022-08-01T14:43:54.931Z,27.12
2022-08-01T14:48:56.417Z,27.16
2022-08-01T14:53:57.938Z,27.15
2022-08-01T14:58:59.465Z,26.83
2022-08-01T15:04:01.008Z,26.26
2022-08-01T15:09:08.138Z,26.45
2022-08-01T15:14:10.992Z,26.28
2022-08-01T15:19:12.441Z,26.02
2022-08-01T15:24:13.913Z,25.80
2022-08-01T15:29:15.408Z,25.80
2022-08-01T15:34:16.919Z,25.97
2022-08-01T15:39:18.461Z,25.86
2022-08-01T15:44:20.094Z,25.61
2022-08-01T15:49:21.680Z,25.83
2022-08-01T15:54:23.742Z,25.86
2022-08-01T15:59:26.057Z,25.63
2022-08-01T16:04:29.917Z,25.65
2022-08-01T16:09:31.854Z,25.77
2022-08-01T16:14:33.371Z,25.73
2022-08-01T16:19:34.864Z,25.74
2022-08-01T16:24:36.426Z,25.65
2022-08-01T16:29:37.878Z,25.64
2022-08-01T16:34:41.400Z,25.70
2022-08-01T16:39:48.373Z,25.80
2022-08-01T16:44:49.856Z,25.92
2022-08-01T16:49:51.333Z,25.86
2022-08-01T16:54:52.870Z,25.73
2022-08-01T16:59:54.391Z,25.54
2022-08-01T17:04:55.919Z,25.40
2022-08-01T17:09:57.428Z,25.35
2022-08-01T17:14:59.564Z,25.25
2022-08-01T17:20:01.093Z,25.21
2022-08-01T17:25:03.009Z,25.11
2022-08-01T17:30:06.200Z,25.15
2022-08-01T17:35:08.991Z,25.00
2022-08-01T17:40:38.599Z,24.95
2022-08-01T17:45:38.108Z,24.89
2022-08-01T17:50:52.005Z,24.82
2022-08-01T17:55:57.179Z,24.74
2022-08-01T18:01:19.958Z,24.51
2022-08-01T18:06:23.223Z,24.37
2022-08-01T18:11:27.233Z,24.30
2022-08-01T18:16:29.193Z,24.19
2022-08-01T18:21:30.857Z,24.10
2022-08-01T18:26:32.421Z,24.06
2022-08-01T18:31:34.423Z,23.97
2022-08-01T18:36:36.115Z,23.79
2022-08-01T18:41:41.915Z,23.66
2022-08-01T18:46:43.545Z,23.51
2022-08-01T18:51:45.248Z,23.25
2022-08-01T18:56:46.934Z,23.19
2022-08-01T19:01:48.601Z,22.93
2022-08-01T19:06:50.223Z,22.83
2022-08-01T19:11:51.759Z,22.68
2022-08-01T19:16:53.232Z,22.49
2022-08-01T19:21:55.221Z,22.51
2022-08-01T19:26:59.352Z,22.48
2022-08-01T19:32:09.973Z,22.55
2022-08-01T19:37:12.102Z,22.39
2022-08-01T19:42:14.545Z,22.33
2022-08-01T19:47:17.597Z,22.23
2022-08-01T19:52:24.529Z,22.15
2022-08-01T19:57:26.732Z,22.05
2022-08-01T20:02:47.235Z,21.88
2022-08-01T20:07:50.701Z,21.69
2022-08-01T20:12:53.720Z,21.72
2022-08-01T20:17:57.792Z,21.44
2022-08-01T20:22:59.247Z,21.48
2022-08-01T20:28:00.798Z,21.25
2022-08-01T20:33:02.775Z,21.13
2022-08-01T20:38:07.130Z,20.87
2022-08-01T20:43:09.628Z,20.96
2022-08-01T20:48:11.891Z,20.90
2022-08-01T20:53:13.404Z,20.65
2022-08-01T20:58:27.301Z,20.53
2022-08-01T21:03:40.909Z,20.51
2022-08-01T21:08:44.586Z,20.45
2022-08-01T21:13:46.543Z,20.48
2022-08-01T21:19:19.066Z,20.29
2022-08-01T21:24:26.694Z,20.27
2022-08-01T21:29:28.911Z,20.11
2022-08-01T21:34:30.658Z,20.21
2022-08-01T21:39:32.794Z,19.92
2022-08-01T21:44:35.314Z,20.11
2022-08-01T21:49:37.105Z,19.86
2022-08-01T21:54:48.791Z,19.86
2022-08-01T22:00:24.958Z,19.96
2022-08-01T22:05:50.561Z,19.74
2022-08-01T22:10:57.351Z,19.69
2022-08-01T22:15:59.067Z,19.54
2022-08-01T22:21:02.455Z,19.50
2022-08-01T22:26:09.480Z,19.53
2022-08-01T22:31:11.107Z,19.17
2022-08-01T22:36:13.996Z,19.30
2022-08-01T22:41:24.975Z,19.06
2022-08-01T22:46:35.094Z,19.01
2022-08-01T22:51:54.867Z,19.14
2022-08-01T22:57:01.396Z,18.92
2022-08-01T23:02:11.676Z,18.84
2022-08-01T23:07:19.039Z,19.04
2022-08-01T23:12:22.863Z,19.14
2022-08-01T23:17:28.773Z,18.95
2022-08-01T23:22:34.195Z,18.86
2022-08-01T23:27:51.501Z,18.71
2022-08-01T23:33:03.953Z,18.84
2022-08-01T23:38:06.402Z,18.72
2022-08-01T23:43:16.190Z,18.55
2022-08-01T23:48:19.274Z,18.55
2022-08-01T23:53:20.842Z,18.59
2022-08-01T23:58:22.523Z,18.48
